Oak Park, California
Current Conditions -  °F | °C
As of 5:51 PM on Saturday 25 Oct 2014 (Local Time) from KVNY Reporting Station
Clear Clear  
Wind Chill: 77°   Ceiling: Unl
Heat Index: 78°   Visibility: 10mi
Dew Point: 45°   Wind: 3mph
Humidity: 32%   Direction: NA
Pressure: 29.98"   Gusts: NA
Location:  34.17°N, 118.76°W
Report Text: KVNY 260051Z VRB03KT 10SM CLR 25/07 A2998 RMK AO2 SLP144 T02500072
Loading
Personal Weather Stations






























Interactive Weather Map
Tropical Storm Tracking
New forecast layout! Learn more

10-Day Weather Forecast

Advertisements
Track Severe Weather on mobile